KRKD/RKD METAR and TAF weather

Enter ICAO airport designator
Station Type Date Time Source
KRKD METAR 2024/04/18 06:56 UTC NOAA

KRKD 180656Z AUTO 04005KT 10SM CLR 04/M01 A3021 RMK AO2 SLP230 T00441006


Station Type Date Time Source
KRKD Decoded METAR 2024/04/18 06:56 UTC NOAA

Rockland, Knox County Regional Airport, ME, United States (KRKD) 44-04N 069-06W
Apr 18, 2024 - 02:56 AM EDT / 2024.04.18 0656 UTC
Wind: from the NE (040 degrees) at 6 MPH (5 KT):0
Visibility: 10 mile(s):0
Sky conditions: clear
Temperature: 39.9 F (4.4 C)
Dew Point: 30.9 F (-0.6 C)
Relative Humidity: 69%
Pressure (altimeter): 30.21 in. Hg (1023 hPa)
ob: KRKD 180656Z AUTO 04005KT 10SM CLR 04/M01 A3021 RMK AO2 SLP230 T00441006
cycle: 7

Station Type Date Time Source
KRKD TAF 2024/04/18 06:52 UTC NOAA